createdAt,value
2023-05-12T00:00:11.570Z,99775.81
2023-05-12T00:00:43.136Z,99769.91
2023-05-12T00:01:14.787Z,99774.28
2023-05-12T00:01:46.354Z,99778.88
2023-05-12T00:02:17.955Z,99780.81
2023-05-12T00:02:49.638Z,99772.72
2023-05-12T00:03:21.332Z,99781.38
2023-05-12T00:03:53.285Z,99784.91
2023-05-12T00:04:24.907Z,99780.69
2023-05-12T00:04:56.647Z,99791.19
2023-05-12T00:05:28.256Z,99784.78
2023-05-12T00:06:00.685Z,99790.94
2023-05-12T00:06:32.265Z,99792.91
2023-05-12T00:07:03.840Z,99792.91
2023-05-12T00:07:35.435Z,99780.44
2023-05-12T00:08:07.036Z,99785.59
2023-05-12T00:08:38.932Z,99780.03
2023-05-12T00:09:10.505Z,99781.97
2023-05-12T00:09:42.076Z,99785.47
2023-05-12T00:10:13.679Z,99777.50
2023-05-12T00:10:45.278Z,99788.13
2023-05-12T00:11:16.830Z,99786.16
2023-05-12T00:11:48.514Z,99788.13
2023-05-12T00:12:20.133Z,99784.78
2023-05-12T00:12:51.695Z,99779.47
2023-05-12T00:13:23.481Z,99792.63
2023-05-12T00:13:55.458Z,99779.59
2023-05-12T00:14:27.128Z,99782.25
2023-05-12T00:14:58.675Z,99783.34
2023-05-12T00:15:30.355Z,99782.53
2023-05-12T00:16:02.448Z,99779.72
2023-05-12T00:16:34.113Z,99788.66
2023-05-12T00:17:06.002Z,99783.91
2023-05-12T00:17:37.624Z,99786.72
2023-05-12T00:18:09.245Z,99787.72
2023-05-12T00:18:40.837Z,99788.66
2023-05-12T00:19:12.560Z,99788.66
2023-05-12T00:19:44.180Z,99794.69
2023-05-12T00:20:15.778Z,99787.56
2023-05-12T00:20:47.325Z,99790.38
2023-05-12T00:21:18.885Z,99786.72
2023-05-12T00:21:50.455Z,99790.38
2023-05-12T00:22:22.068Z,99790.38
2023-05-12T00:22:53.630Z,99797.66
2023-05-12T00:23:25.194Z,99795.81
2023-05-12T00:23:56.818Z,99794.13
2023-05-12T00:24:28.488Z,99788.66
2023-05-12T00:25:00.271Z,99784.19
2023-05-12T00:25:32.025Z,99796.53
2023-05-12T00:26:03.682Z,99792.31
2023-05-12T00:26:35.271Z,99791.34
2023-05-12T00:27:07.006Z,99785.31
2023-05-12T00:27:38.613Z,99794.25
2023-05-12T00:28:10.491Z,99799.56
2023-05-12T00:28:42.088Z,99792.47
2023-05-12T00:29:13.625Z,99796.66
2023-05-12T00:29:45.220Z,99789.50
2023-05-12T00:30:17.042Z,99794.13
2023-05-12T00:30:48.784Z,99792.59
2023-05-12T00:31:20.524Z,99796.66
2023-05-12T00:31:52.229Z,99794.00
2023-05-12T00:32:23.835Z,99800.44
2023-05-12T00:32:55.554Z,99801.28
2023-05-12T00:33:27.211Z,99804.63
2023-05-12T00:33:58.814Z,99802.09
2023-05-12T00:34:30.422Z,99796.66
2023-05-12T00:35:02.140Z,99800.31
2023-05-12T00:35:33.869Z,99798.47
2023-05-12T00:36:05.780Z,99795.69
2023-05-12T00:36:37.356Z,99799.31
2023-05-12T00:37:08.894Z,99798.47
2023-05-12T00:37:40.468Z,99799.31
2023-05-12T00:38:12.475Z,99802.81
2023-05-12T00:38:44.044Z,99798.34
2023-05-12T00:39:15.586Z,99794.00
2023-05-12T00:39:47.180Z,99802.97
2023-05-12T00:40:18.992Z,99801.84
2023-05-12T00:40:50.718Z,99796.66
2023-05-12T00:41:22.333Z,99802.97
2023-05-12T00:41:59.429Z,99803.81
2023-05-12T00:42:30.987Z,99798.22
2023-05-12T00:43:02.722Z,99800.88
2023-05-12T00:43:34.364Z,99807.16
2023-05-12T00:44:05.934Z,99799.03
2023-05-12T00:44:37.623Z,99803.66
2023-05-12T00:45:09.448Z,99802.97
2023-05-12T00:45:41.034Z,99799.56
2023-05-12T00:46:12.732Z,99805.75
2023-05-12T00:46:44.260Z,99810.22
2023-05-12T00:47:15.831Z,99803.09
2023-05-12T00:47:47.512Z,99799.56
2023-05-12T00:48:19.143Z,99810.22
2023-05-12T00:48:50.849Z,99801.28
2023-05-12T00:49:22.445Z,99806.59
2023-05-12T00:49:54.054Z,99807.44
2023-05-12T00:50:25.653Z,99810.22
2023-05-12T00:50:57.300Z,99800.56
2023-05-12T00:51:28.875Z,99804.91
2023-05-12T00:52:02.077Z,99804.91
2023-05-12T00:52:33.693Z,99803.09
2023-05-12T00:53:05.252Z,99803.94
2023-05-12T00:53:48.394Z,99804.63
2023-05-12T00:54:21.356Z,99809.25
2023-05-12T00:54:52.920Z,99801.41
2023-05-12T00:55:25.100Z,99803.22
2023-05-12T00:55:56.694Z,99802.25
2023-05-12T00:56:28.241Z,99806.84
2023-05-12T00:56:59.844Z,99808.56
2023-05-12T00:57:31.388Z,99808.56
2023-05-12T00:58:03.056Z,99806.72
2023-05-12T00:58:34.617Z,99806.59
2023-05-12T00:59:06.581Z,99803.09
2023-05-12T00:59:38.190Z,99804.91
2023-05-12T01:00:10.025Z,99807.56
2023-05-12T01:00:41.645Z,99800.44
2023-05-12T01:01:13.313Z,99811.91
2023-05-12T01:01:44.939Z,99809.25
2023-05-12T01:02:16.480Z,99812.19
2023-05-12T01:02:48.278Z,99811.91
2023-05-12T01:03:20.234Z,99813.59
2023-05-12T01:03:51.867Z,99807.44
2023-05-12T01:04:23.460Z,99815.28
2023-05-12T01:04:55.057Z,99811.09
2023-05-12T01:05:27.897Z,99807.44
2023-05-12T01:06:01.064Z,99811.91
2023-05-12T01:06:39.068Z,99810.09
2023-05-12T01:07:12.869Z,99808.41
2023-05-12T01:07:44.431Z,99808.56
2023-05-12T01:08:16.787Z,99812.03
2023-05-12T01:08:48.356Z,99814.56
2023-05-12T01:09:20.363Z,99811.91
2023-05-12T01:09:55.228Z,99810.22
2023-05-12T01:10:26.902Z,99802.97
2023-05-12T01:10:58.502Z,99808.28
2023-05-12T01:11:30.162Z,99805.75
2023-05-12T01:12:01.748Z,99809.25
2023-05-12T01:12:33.353Z,99812.75
2023-05-12T01:13:04.967Z,99809.94
2023-05-12T01:13:36.552Z,99808.28
2023-05-12T01:14:08.178Z,99803.81
2023-05-12T01:14:39.822Z,99806.59
2023-05-12T01:15:11.394Z,99805.91
2023-05-12T01:15:45.411Z,99811.22
2023-05-12T01:16:16.980Z,99811.34
2023-05-12T01:16:50.473Z,99816.53
2023-05-12T01:17:23.401Z,99809.53
2023-05-12T01:17:58.553Z,99807.13
2023-05-12T01:18:30.328Z,99814.13
2023-05-12T01:19:02.212Z,99810.47
2023-05-12T01:19:45.977Z,99819.47
2023-05-12T01:20:17.751Z,99811.47
2023-05-12T01:20:49.447Z,99810.34
2023-05-12T01:21:21.216Z,99812.44
2023-05-12T01:21:52.830Z,99814.97
2023-05-12T01:22:24.561Z,99809.66
2023-05-12T01:22:56.089Z,99813.16
2023-05-12T01:23:27.994Z,99810.47
2023-05-12T01:24:00.812Z,99813.88
2023-05-12T01:24:32.450Z,99806.84
2023-05-12T01:25:05.252Z,99813.88
2023-05-12T01:25:36.833Z,99814.72
2023-05-12T01:26:08.687Z,99815.81
2023-05-12T01:26:40.272Z,99807.13
2023-05-12T01:27:12.148Z,99814.41
2023-05-12T01:27:43.785Z,99811.63
2023-05-12T01:28:15.338Z,99811.75
2023-05-12T01:28:46.917Z,99805.44
2023-05-12T01:29:18.450Z,99814.13
2023-05-12T01:29:50.114Z,99806.84
2023-05-12T01:30:21.941Z,99809.66
2023-05-12T01:30:53.682Z,99808.81
2023-05-12T01:31:25.354Z,99813.28
2023-05-12T01:31:56.909Z,99811.63
2023-05-12T01:32:28.512Z,99810.75
2023-05-12T01:33:00.147Z,99806.28
2023-05-12T01:33:32.513Z,99805.72
2023-05-12T01:34:04.105Z,99809.09
2023-05-12T01:34:35.870Z,99814.53
2023-05-12T01:35:07.636Z,99804.72
2023-05-12T01:35:39.283Z,99809.78
2023-05-12T01:36:10.842Z,99809.78
2023-05-12T01:36:42.396Z,99808.94
2023-05-12T01:37:13.972Z,99808.25
2023-05-12T01:37:45.572Z,99814.41
2023-05-12T01:38:17.135Z,99816.06
2023-05-12T01:38:48.716Z,99810.75
2023-05-12T01:39:20.291Z,99815.81
2023-05-12T01:39:51.945Z,99816.22
2023-05-12T01:40:23.663Z,99821.97
2023-05-12T01:40:55.276Z,99809.78
2023-05-12T01:41:26.906Z,99811.91
2023-05-12T01:41:58.456Z,99817.22
2023-05-12T01:42:30.096Z,99811.91
2023-05-12T01:43:01.790Z,99816.66
2023-05-12T01:43:33.352Z,99814.13
2023-05-12T01:44:05.174Z,99818.72
2023-05-12T01:44:36.735Z,99814.28
2023-05-12T01:45:08.607Z,99811.34
2023-05-12T01:45:40.174Z,99820.03
2023-05-12T01:46:11.774Z,99819.59
2023-05-12T01:46:43.529Z,99814.13
2023-05-12T01:47:15.216Z,99816.06
2023-05-12T01:47:46.829Z,99822.13
2023-05-12T01:48:18.462Z,99824.78
2023-05-12T01:48:50.106Z,99817.75
2023-05-12T01:49:21.675Z,99817.06
2023-05-12T01:49:53.233Z,99820.41
2023-05-12T01:50:24.848Z,99823.78
2023-05-12T01:50:59.266Z,99823.78
2023-05-12T01:51:30.857Z,99823.09
2023-05-12T01:52:02.468Z,99819.31
2023-05-12T01:52:34.101Z,99825.47
2023-05-12T01:53:05.701Z,99820.16
2023-05-12T01:53:37.311Z,99822.81
2023-05-12T01:54:08.878Z,99818.47
2023-05-12T01:54:40.494Z,99822.81
2023-05-12T01:55:12.099Z,99816.66
2023-05-12T01:55:43.682Z,99823.66
2023-05-12T01:56:15.302Z,99823.78
2023-05-12T01:56:46.919Z,99820.56
2023-05-12T01:57:18.521Z,99823.09
2023-05-12T01:57:50.172Z,99827.44
2023-05-12T01:58:21.783Z,99826.44
2023-05-12T01:58:53.417Z,99826.44
2023-05-12T01:59:25.110Z,99818.59
2023-05-12T01:59:56.730Z,99824.03
2023-05-12T02:00:28.284Z,99822.13
2023-05-12T02:00:59.948Z,99824.78
2023-05-12T02:01:31.617Z,99828.41
2023-05-12T02:02:03.317Z,99823.91
2023-05-12T02:02:35.064Z,99826.56
2023-05-12T02:03:06.838Z,99827.69
2023-05-12T02:03:38.684Z,99833.97
2023-05-12T02:04:10.361Z,99836.50
2023-05-12T02:04:42.032Z,99830.22
2023-05-12T02:05:13.644Z,99834.69
2023-05-12T02:05:45.215Z,99835.69
2023-05-12T02:06:16.813Z,99833.84
2023-05-12T02:06:48.402Z,99836.38
2023-05-12T02:07:19.997Z,99832.88
2023-05-12T02:07:51.571Z,99835.28
2023-05-12T02:08:23.251Z,99837.22
2023-05-12T02:08:54.801Z,99840.00
2023-05-12T02:09:26.361Z,99840.88
2023-05-12T02:09:58.007Z,99841.00
2023-05-12T02:10:29.596Z,99844.34
2023-05-12T02:11:04.507Z,99840.16
2023-05-12T02:11:36.095Z,99839.31
2023-05-12T02:12:08.018Z,99843.53
2023-05-12T02:12:39.573Z,99837.34
2023-05-12T02:13:11.187Z,99841.69
2023-05-12T02:13:42.894Z,99839.75
2023-05-12T02:14:14.484Z,99839.03
2023-05-12T02:14:46.089Z,99838.34
2023-05-12T02:15:17.699Z,99842.81
2023-05-12T02:15:49.238Z,99838.47
2023-05-12T02:16:20.925Z,99835.94
2023-05-12T02:16:52.684Z,99835.81
2023-05-12T02:17:24.438Z,99833.16
2023-05-12T02:17:56.125Z,99835.69
2023-05-12T02:18:27.756Z,99845.63
2023-05-12T02:18:59.464Z,99838.59
2023-05-12T02:19:31.049Z,99845.31
2023-05-12T02:20:02.678Z,99837.34
2023-05-12T02:20:34.287Z,99837.63
2023-05-12T02:21:05.903Z,99839.88
2023-05-12T02:21:37.451Z,99836.50
2023-05-12T02:22:09.060Z,99835.69
2023-05-12T02:22:40.653Z,99840.16
2023-05-12T02:23:12.209Z,99834.84
2023-05-12T02:23:43.803Z,99839.56
2023-05-12T02:24:15.432Z,99837.63
2023-05-12T02:24:47.068Z,99842.81
2023-05-12T02:25:18.680Z,99838.47
2023-05-12T02:25:50.290Z,99844.63
2023-05-12T02:26:21.952Z,99841.97
2023-05-12T02:26:53.532Z,99841.25
2023-05-12T02:27:25.145Z,99841.13
2023-05-12T02:27:56.746Z,99835.13
2023-05-12T02:28:28.303Z,99842.09
2023-05-12T02:28:59.915Z,99841.00
2023-05-12T02:29:31.570Z,99835.69
2023-05-12T02:30:03.191Z,99843.41
2023-05-12T02:30:34.745Z,99842.09
2023-05-12T02:31:06.352Z,99840.56
2023-05-12T02:31:38.041Z,99834.25
2023-05-12T02:32:09.731Z,99845.16
2023-05-12T02:32:41.483Z,99843.22
2023-05-12T02:33:13.072Z,99847.81
2023-05-12T02:33:44.686Z,99846.59
2023-05-12T02:34:16.595Z,99841.13
2023-05-12T02:34:48.380Z,99836.38
2023-05-12T02:35:19.967Z,99839.88
2023-05-12T02:35:51.534Z,99843.53
2023-05-12T02:36:23.138Z,99842.66
2023-05-12T02:36:54.742Z,99835.53
2023-05-12T02:37:26.311Z,99838.47
2023-05-12T02:37:57.874Z,99832.59
2023-05-12T02:38:29.430Z,99834.25
2023-05-12T02:39:01.034Z,99841.00
2023-05-12T02:39:32.627Z,99836.38
2023-05-12T02:40:04.647Z,99833.72
2023-05-12T02:40:36.268Z,99838.06
2023-05-12T02:41:08.096Z,99833.03
2023-05-12T02:41:39.711Z,99843.66
2023-05-12T02:42:11.327Z,99841.13
2023-05-12T02:42:42.911Z,99839.31
2023-05-12T02:43:14.514Z,99844.88
2023-05-12T02:43:46.092Z,99843.22
2023-05-12T02:44:17.677Z,99848.66
2023-05-12T02:44:49.237Z,99841.91
2023-05-12T02:45:20.890Z,99836.34
2023-05-12T02:45:52.463Z,99844.44
2023-05-12T02:46:24.210Z,99839.56
2023-05-12T02:46:55.869Z,99843.22
2023-05-12T02:47:27.490Z,99838.72
2023-05-12T02:47:59.180Z,99841.25
2023-05-12T02:48:30.773Z,99843.78
2023-05-12T02:49:02.387Z,99843.34
2023-05-12T02:49:33.972Z,99844.31
2023-05-12T02:50:05.867Z,99850.47
2023-05-12T02:50:37.477Z,99838.16
2023-05-12T02:51:09.084Z,99848.53
2023-05-12T02:51:40.690Z,99838.88
2023-05-12T02:52:12.397Z,99844.31
2023-05-12T02:52:43.973Z,99838.72
2023-05-12T02:53:15.688Z,99843.22
2023-05-12T02:53:47.213Z,99843.22
2023-05-12T02:54:18.841Z,99836.06
2023-05-12T02:54:50.418Z,99840.56
2023-05-12T02:55:22.010Z,99833.53
2023-05-12T02:55:53.611Z,99835.13
2023-05-12T02:56:25.249Z,99842.22
2023-05-12T02:56:56.852Z,99835.94
2023-05-12T02:57:28.461Z,99844.88
2023-05-12T02:58:00.056Z,99840.44
2023-05-12T02:58:31.655Z,99837.91
2023-05-12T02:59:03.240Z,99833.28
2023-05-12T02:59:34.832Z,99842.09
2023-05-12T03:00:06.937Z,99841.25
2023-05-12T03:00:38.481Z,99840.56
2023-05-12T03:01:11.468Z,99840.44
2023-05-12T03:01:43.553Z,99835.13
2023-05-12T03:02:15.189Z,99840.44
2023-05-12T03:02:46.920Z,99837.78
2023-05-12T03:03:18.740Z,99839.44
2023-05-12T03:03:50.532Z,99842.22
2023-05-12T03:04:22.210Z,99842.09
2023-05-12T03:04:53.805Z,99844.19
2023-05-12T03:05:25.424Z,99839.00
2023-05-12T03:05:57.083Z,99842.50
2023-05-12T03:06:29.572Z,99842.34
2023-05-12T03:07:01.292Z,99844.19
2023-05-12T03:07:32.887Z,99844.88
2023-05-12T03:08:04.553Z,99837.78
2023-05-12T03:08:36.215Z,99844.63
2023-05-12T03:09:07.995Z,99848.28
2023-05-12T03:09:39.638Z,99850.19
2023-05-12T03:10:11.246Z,99847.41
2023-05-12T03:10:42.835Z,99841.97
2023-05-12T03:11:14.442Z,99853.59
2023-05-12T03:11:46.070Z,99852.88
2023-05-12T03:12:17.654Z,99844.88
2023-05-12T03:12:49.219Z,99851.91
2023-05-12T03:13:20.785Z,99851.19
2023-05-12T03:13:52.377Z,99850.19
2023-05-12T03:14:24.059Z,99856.38
2023-05-12T03:14:55.736Z,99852.88
2023-05-12T03:15:27.306Z,99847.53
2023-05-12T03:15:58.923Z,99850.19
2023-05-12T03:16:30.531Z,99852.72
2023-05-12T03:17:02.127Z,99847.97
2023-05-12T03:17:33.768Z,99849.94
2023-05-12T03:18:05.521Z,99850.63
2023-05-12T03:18:37.181Z,99851.91
2023-05-12T03:19:08.892Z,99848.28
2023-05-12T03:19:40.721Z,99849.25
2023-05-12T03:20:12.375Z,99849.38
2023-05-12T03:20:44.023Z,99845.75
2023-05-12T03:21:15.700Z,99849.25
2023-05-12T03:21:47.333Z,99851.91
2023-05-12T03:22:18.914Z,99848.53
2023-05-12T03:22:50.471Z,99845.16
2023-05-12T03:23:22.050Z,99850.47
2023-05-12T03:23:53.649Z,99863.63
2023-05-12T03:24:25.276Z,99859.03
2023-05-12T03:24:56.932Z,99855.66
2023-05-12T03:25:28.544Z,99850.19
2023-05-12T03:26:00.125Z,99858.91
2023-05-12T03:26:31.652Z,99853.59
2023-05-12T03:27:03.323Z,99849.09
2023-05-12T03:27:34.895Z,99851.91
2023-05-12T03:28:06.486Z,99853.84
2023-05-12T03:28:38.032Z,99853.84
2023-05-12T03:29:09.680Z,99851.91
2023-05-12T03:29:41.294Z,99851.91
2023-05-12T03:30:13.211Z,99857.22
2023-05-12T03:30:44.865Z,99855.53
2023-05-12T03:31:16.482Z,99856.13
2023-05-12T03:31:48.166Z,99858.91
2023-05-12T03:32:19.791Z,99852.72
2023-05-12T03:32:51.475Z,99856.25
2023-05-12T03:33:23.039Z,99859.63
2023-05-12T03:33:54.632Z,99856.97
2023-05-12T03:34:26.209Z,99859.75
2023-05-12T03:34:57.818Z,99864.22
2023-05-12T03:35:29.464Z,99857.09
2023-05-12T03:36:01.070Z,99856.13
2023-05-12T03:36:32.618Z,99857.09
2023-05-12T03:37:04.294Z,99858.63
2023-05-12T03:37:35.925Z,99855.13
2023-05-12T03:38:07.519Z,99855.97
2023-05-12T03:38:39.098Z,99856.97
2023-05-12T03:39:10.732Z,99861.44
2023-05-12T03:39:42.320Z,99861.56
2023-05-12T03:40:13.992Z,99850.94
2023-05-12T03:40:45.600Z,99864.22
2023-05-12T03:41:17.177Z,99867.59
2023-05-12T03:41:48.736Z,99861.56
2023-05-12T03:42:20.315Z,99856.97
2023-05-12T03:42:51.857Z,99859.75
2023-05-12T03:43:23.425Z,99857.22
2023-05-12T03:43:54.990Z,99860.72
2023-05-12T03:44:26.550Z,99859.88
2023-05-12T03:44:58.169Z,99860.97
2023-05-12T03:45:29.742Z,99859.03
2023-05-12T03:46:01.370Z,99864.50
2023-05-12T03:46:33.041Z,99860.72
2023-05-12T03:47:04.900Z,99858.63
2023-05-12T03:47:36.724Z,99858.78
2023-05-12T03:48:08.414Z,99858.63
2023-05-12T03:48:39.990Z,99855.97
2023-05-12T03:49:12.034Z,99863.94
2023-05-12T03:49:43.572Z,99851.63
2023-05-12T03:50:15.201Z,99859.47
2023-05-12T03:50:46.811Z,99861.44
2023-05-12T03:51:18.402Z,99863.25
2023-05-12T03:51:50.038Z,99857.22
2023-05-12T03:52:21.640Z,99861.72
2023-05-12T03:52:53.220Z,99862.66
2023-05-12T03:53:24.834Z,99861.84
2023-05-12T03:53:56.369Z,99864.38
2023-05-12T03:54:27.981Z,99860.84
2023-05-12T03:54:59.629Z,99859.03
2023-05-12T03:55:31.324Z,99860.84
2023-05-12T03:56:05.900Z,99867.84
2023-05-12T03:56:37.471Z,99863.50
2023-05-12T03:57:09.101Z,99859.19
2023-05-12T03:57:40.653Z,99860.59
2023-05-12T03:58:12.218Z,99858.06
2023-05-12T03:58:44.089Z,99859.03
2023-05-12T03:59:15.684Z,99860.00
2023-05-12T03:59:47.298Z,99861.56
2023-05-12T04:00:19.139Z,99860.00
2023-05-12T04:00:50.952Z,99862.53
2023-05-12T04:01:22.514Z,99862.53
2023-05-12T04:01:54.161Z,99859.88
2023-05-12T04:02:26.082Z,99861.44
2023-05-12T04:02:57.791Z,99859.75
2023-05-12T04:03:29.529Z,99860.84
2023-05-12T04:04:01.274Z,99862.81
2023-05-12T04:04:32.899Z,99861.97
2023-05-12T04:05:04.638Z,99864.75
2023-05-12T04:05:36.222Z,99862.22
2023-05-12T04:06:07.870Z,99869.09
2023-05-12T04:06:39.450Z,99868.38
2023-05-12T04:07:11.139Z,99867.41
2023-05-12T04:07:42.722Z,99870.06
2023-05-12T04:08:14.298Z,99864.75
2023-05-12T04:08:45.883Z,99868.25
2023-05-12T04:09:17.442Z,99865.59
2023-05-12T04:09:48.988Z,99867.41
2023-05-12T04:10:20.754Z,99868.25
2023-05-12T04:10:54.589Z,99871.16
2023-05-12T04:11:26.123Z,99872.88
2023-05-12T04:11:57.756Z,99865.03
2023-05-12T04:12:29.341Z,99873.00
2023-05-12T04:13:01.221Z,99867.53
2023-05-12T04:13:33.338Z,99873.69
2023-05-12T04:14:04.937Z,99872.16
2023-05-12T04:14:42.913Z,99879.16
2023-05-12T04:15:15.080Z,99868.38
2023-05-12T04:15:46.670Z,99876.63
2023-05-12T04:16:18.338Z,99873.81
2023-05-12T04:16:50.148Z,99879.16
2023-05-12T04:17:21.750Z,99876.75
2023-05-12T04:17:53.446Z,99870.72
2023-05-12T04:18:25.587Z,99884.34
2023-05-12T04:18:57.258Z,99881.22
2023-05-12T04:19:28.904Z,99876.88
2023-05-12T04:20:00.449Z,99875.09
2023-05-12T04:20:31.990Z,99880.97
2023-05-12T04:21:03.631Z,99878.19
2023-05-12T04:21:35.383Z,99881.81
2023-05-12T04:22:06.950Z,99878.44
2023-05-12T04:22:38.537Z,99881.22
2023-05-12T04:23:10.181Z,99883.19
2023-05-12T04:23:41.745Z,99884.03
2023-05-12T04:24:13.409Z,99879.28
2023-05-12T04:24:44.924Z,99884.72
2023-05-12T04:25:16.568Z,99884.59
2023-05-12T04:25:48.203Z,99883.50
2023-05-12T04:26:19.817Z,99881.81
2023-05-12T04:26:51.395Z,99883.50
2023-05-12T04:27:22.986Z,99881.81
2023-05-12T04:27:54.593Z,99888.81
2023-05-12T04:28:26.171Z,99883.50
2023-05-12T04:28:57.713Z,99888.81
2023-05-12T04:29:29.276Z,99882.06
2023-05-12T04:30:00.872Z,99881.81
2023-05-12T04:30:32.741Z,99888.81
2023-05-12T04:31:04.336Z,99893.56
2023-05-12T04:31:36.032Z,99885.59
2023-05-12T04:32:07.973Z,99888.25
2023-05-12T04:32:39.905Z,99886.56
2023-05-12T04:33:11.781Z,99888.50
2023-05-12T04:33:48.221Z,99886.56
2023-05-12T04:34:20.099Z,99887.25
2023-05-12T04:34:51.766Z,99887.13
2023-05-12T04:35:23.368Z,99884.34
2023-05-12T04:35:57.750Z,99889.06
2023-05-12T04:36:29.301Z,99888.50
2023-05-12T04:37:00.958Z,99893.81
2023-05-12T04:37:32.575Z,99893.69
2023-05-12T04:38:04.170Z,99890.16
2023-05-12T04:38:35.732Z,99895.50
2023-05-12T04:39:07.289Z,99891.88
2023-05-12T04:39:39.007Z,99890.31
2023-05-12T04:40:10.632Z,99893.09
2023-05-12T04:40:42.276Z,99892.81
2023-05-12T04:41:14.056Z,99891.16
2023-05-12T04:41:45.668Z,99888.50
2023-05-12T04:42:17.315Z,99891.16
2023-05-12T04:42:48.876Z,99890.16
2023-05-12T04:44:29.391Z,99900.94
2023-05-12T04:45:00.981Z,99892.97
2023-05-12T04:45:32.594Z,99895.75
2023-05-12T04:46:04.269Z,99899.41
2023-05-12T04:46:36.034Z,99902.19
2023-05-12T04:47:07.690Z,99895.19
2023-05-12T04:47:39.285Z,99903.84
2023-05-12T04:48:10.815Z,99906.25
2023-05-12T04:48:42.360Z,99898.28
2023-05-12T04:49:13.948Z,99906.13
2023-05-12T04:49:45.578Z,99909.78
2023-05-12T04:50:17.293Z,99909.53
2023-05-12T04:50:49.495Z,99907.81
2023-05-12T04:51:21.066Z,99906.84
2023-05-12T04:51:52.663Z,99915.09
2023-05-12T04:52:24.881Z,99912.69
2023-05-12T04:52:56.562Z,99906.38
2023-05-12T04:53:28.214Z,99913.13
2023-05-12T04:53:59.757Z,99915.94
2023-05-12T04:54:31.697Z,99912.31
2023-05-12T04:55:03.326Z,99921.25
2023-05-12T04:55:34.955Z,99919.69
2023-05-12T04:56:06.619Z,99917.03
2023-05-12T04:56:38.238Z,99922.81
2023-05-12T04:57:09.787Z,99917.38
2023-05-12T04:57:41.533Z,99917.38
2023-05-12T04:58:13.329Z,99917.38
2023-05-12T04:58:45.118Z,99922.06
2023-05-12T04:59:16.735Z,99922.06
2023-05-12T04:59:48.335Z,99918.59
2023-05-12T05:00:20.054Z,99920.16
2023-05-12T05:00:51.652Z,99921.00
2023-05-12T05:01:23.224Z,99927.13
2023-05-12T05:01:54.956Z,99926.56
2023-05-12T05:02:26.629Z,99936.25
2023-05-12T05:02:58.360Z,99926.56
2023-05-12T05:03:30.221Z,99930.91
2023-05-12T05:04:01.944Z,99934.41
2023-05-12T05:04:33.611Z,99933.56
2023-05-12T05:05:05.377Z,99936.09
2023-05-12T05:05:36.951Z,99938.78
2023-05-12T05:06:08.491Z,99932.72
2023-05-12T05:06:40.090Z,99939.47
2023-05-12T05:07:11.683Z,99931.50
2023-05-12T05:07:43.268Z,99942.84
2023-05-12T05:08:14.851Z,99945.38
2023-05-12T05:08:46.449Z,99939.22
2023-05-12T05:09:18.040Z,99938.22
2023-05-12T05:09:49.557Z,99945.09
2023-05-12T05:10:21.098Z,99947.75
2023-05-12T05:10:52.674Z,99945.94
2023-05-12T05:11:24.250Z,99948.72
2023-05-12T05:11:55.808Z,99941.88
2023-05-12T05:12:27.413Z,99942.13
2023-05-12T05:12:59.253Z,99944.78
2023-05-12T05:13:30.893Z,99945.50
2023-05-12T05:14:02.454Z,99942.00
2023-05-12T05:14:34.104Z,99941.16
2023-05-12T05:15:05.927Z,99942.84
2023-05-12T05:15:37.524Z,99945.50
2023-05-12T05:16:09.334Z,99951.53
2023-05-12T05:16:40.977Z,99954.31
2023-05-12T05:17:12.537Z,99948.84
2023-05-12T05:17:44.213Z,99951.53
2023-05-12T05:18:15.978Z,99943.66
2023-05-12T05:18:47.686Z,99957.69
2023-05-12T05:19:24.776Z,99956.00
2023-05-12T05:20:11.383Z,99960.50
2023-05-12T05:20:45.426Z,99956.00
2023-05-12T05:21:19.149Z,99961.31
2023-05-12T05:21:50.698Z,99949.97
2023-05-12T05:22:22.302Z,99953.47
2023-05-12T05:22:53.958Z,99952.38
2023-05-12T05:23:25.663Z,99959.38
2023-05-12T05:23:57.233Z,99955.75
2023-05-12T05:24:28.772Z,99958.66
2023-05-12T05:25:00.325Z,99958.78
2023-05-12T05:25:31.894Z,99960.50
2023-05-12T05:26:03.534Z,99960.50
2023-05-12T05:26:35.186Z,99965.81
2023-05-12T05:27:06.751Z,99963.16
2023-05-12T05:27:38.334Z,99966.06
2023-05-12T05:28:09.932Z,99963.28
2023-05-12T05:28:41.515Z,99972.66
2023-05-12T05:29:13.147Z,99957.44
2023-05-12T05:29:44.712Z,99958.41
2023-05-12T05:30:16.512Z,99968.34
2023-05-12T05:30:48.130Z,99956.56
2023-05-12T05:31:19.691Z,99966.38
2023-05-12T05:31:51.431Z,99967.34
2023-05-12T05:32:23.199Z,99973.66
2023-05-12T05:32:54.867Z,99973.78
2023-05-12T05:33:26.444Z,99964.81
2023-05-12T05:33:58.192Z,99970.88
2023-05-12T05:34:30.023Z,99971.69
2023-05-12T05:35:01.598Z,99966.50
2023-05-12T05:35:33.210Z,99971.69
2023-05-12T05:36:04.964Z,99973.53
2023-05-12T05:36:36.557Z,99968.91
2023-05-12T05:37:08.167Z,99965.56
2023-05-12T05:37:39.719Z,99970.13
2023-05-12T05:38:11.314Z,99968.59
2023-05-12T05:38:42.867Z,99973.66
2023-05-12T05:39:14.488Z,99976.44
2023-05-12T05:39:46.047Z,99976.44
2023-05-12T05:40:17.642Z,99978.97
2023-05-12T05:40:53.736Z,99976.31
2023-05-12T05:41:26.170Z,99976.31
2023-05-12T05:41:57.836Z,99979.09
2023-05-12T05:42:29.383Z,99979.81
2023-05-12T05:43:00.966Z,99972.78
2023-05-12T05:43:32.541Z,99970.25
2023-05-12T05:44:04.207Z,99970.00
2023-05-12T05:44:35.864Z,99982.47
2023-05-12T05:45:07.802Z,99971.84
2023-05-12T05:45:39.447Z,99978.13
2023-05-12T05:46:11.085Z,99976.91
2023-05-12T05:46:42.734Z,99984.88
2023-05-12T05:47:14.414Z,99983.03
2023-05-12T05:47:46.148Z,99987.53
2023-05-12T05:48:17.857Z,99981.25
2023-05-12T05:48:49.552Z,99984.88
2023-05-12T05:49:21.158Z,99984.88
2023-05-12T05:49:52.738Z,99988.50
2023-05-12T05:50:24.288Z,99991.16
2023-05-12T05:50:55.845Z,99987.53
2023-05-12T05:51:27.426Z,99983.91
2023-05-12T05:51:59.029Z,99984.03
2023-05-12T05:52:30.659Z,99988.50
2023-05-12T05:53:02.195Z,99984.03
2023-05-12T05:53:33.738Z,99989.34
2023-05-12T05:54:05.471Z,99993.81
2023-05-12T05:54:37.326Z,99991.88
2023-05-12T05:55:08.947Z,99991.75
2023-05-12T05:55:40.540Z,99990.31
2023-05-12T05:56:12.326Z,99991.16
2023-05-12T05:56:44.105Z,99991.16
2023-05-12T05:57:15.738Z,99991.88
2023-05-12T05:57:47.387Z,99989.22
2023-05-12T05:58:18.917Z,99993.56
2023-05-12T05:58:50.501Z,99990.19
2023-05-12T05:59:22.037Z,99990.91
2023-05-12T05:59:53.788Z,99990.63
2023-05-12T06:00:25.368Z,99994.41
2023-05-12T06:00:56.957Z,99993.44
2023-05-12T06:01:28.817Z,99994.41
2023-05-12T06:02:00.492Z,99992.59
2023-05-12T06:02:32.257Z,100004.06
2023-05-12T06:03:04.100Z,99999.75
2023-05-12T06:03:35.749Z,99994.69
2023-05-12T06:04:07.361Z,99995.50
2023-05-12T06:04:39.144Z,99994.41
2023-05-12T06:05:10.779Z,99998.88
2023-05-12T06:05:42.445Z,99996.09
2023-05-12T06:06:14.087Z,99997.91
2023-05-12T06:06:45.679Z,99996.22
2023-05-12T06:07:17.352Z,99998.88
2023-05-12T06:07:48.990Z,99996.34
2023-05-12T06:08:20.547Z,100002.41
2023-05-12T06:08:52.142Z,100002.53
2023-05-12T06:09:23.763Z,99995.25
2023-05-12T06:09:55.327Z,99997.91
2023-05-12T06:10:27.001Z,100003.22
2023-05-12T06:10:58.576Z,100003.94
2023-05-12T06:11:30.141Z,100009.25
2023-05-12T06:12:01.735Z,100002.25
2023-05-12T06:12:33.337Z,100004.19
2023-05-12T06:13:04.947Z,100005.91
2023-05-12T06:13:36.518Z,100006.97
2023-05-12T06:14:08.175Z,100014.13
2023-05-12T06:14:39.988Z,100007.84